createdAt,value
2023-03-26T00:00:00.890Z,2.72
2023-03-26T00:02:29.665Z,3.20
2023-03-26T00:04:57.995Z,2.58
2023-03-26T00:07:27.971Z,3.20
2023-03-26T00:09:58.032Z,3.17
2023-03-26T00:12:26.539Z,1.45
2023-03-26T00:14:54.679Z,2.80
2023-03-26T00:17:24.656Z,3.80
2023-03-26T00:19:53.704Z,2.38
2023-03-26T00:22:23.622Z,3.97
2023-03-26T00:24:52.032Z,2.65
2023-03-26T00:27:20.335Z,2.33
2023-03-26T00:29:48.872Z,2.97
2023-03-26T00:32:17.280Z,2.42
2023-03-26T00:34:46.994Z,1.98
2023-03-26T00:37:15.347Z,3.08
2023-03-26T00:39:44.607Z,3.47
2023-03-26T00:42:15.017Z,2.15
2023-03-26T00:44:43.293Z,3.45
2023-03-26T00:47:11.871Z,2.22
2023-03-26T00:49:42.321Z,4.20
2023-03-26T00:52:11.872Z,2.65
2023-03-26T00:54:40.251Z,1.92
2023-03-26T00:57:10.524Z,3.80
2023-03-26T00:59:39.712Z,2.05
2023-03-26T01:02:10.562Z,3.67
2023-03-26T01:04:39.266Z,2.90
2023-03-26T01:07:14.376Z,3.05
2023-03-26T01:09:45.845Z,3.50
2023-03-26T01:12:17.136Z,2.65
2023-03-26T01:14:46.450Z,3.00
2023-03-26T01:17:15.630Z,2.25
2023-03-26T01:19:49.518Z,3.33
2023-03-26T01:22:21.347Z,1.45
2023-03-26T01:24:56.235Z,4.32
2023-03-26T01:27:41.055Z,2.95
2023-03-26T01:30:18.322Z,2.38
2023-03-26T01:33:00.720Z,3.03
2023-03-26T01:35:43.484Z,2.00
2023-03-26T01:38:28.746Z,1.48
2023-03-26T01:41:05.668Z,1.65
2023-03-26T01:43:39.313Z,1.15
2023-03-26T01:46:10.885Z,1.90
2023-03-26T01:48:41.255Z,1.88
2023-03-26T01:51:12.008Z,0.85
2023-03-26T01:53:44.861Z,1.65
2023-03-26T01:56:21.485Z,0.55
2023-03-26T01:59:04.925Z,0.90
2023-03-26T02:01:44.769Z,1.52
2023-03-26T02:04:22.876Z,1.85
2023-03-26T02:06:58.621Z,1.85
2023-03-26T02:09:32.260Z,1.40
2023-03-26T02:12:04.659Z,1.67
2023-03-26T02:14:34.298Z,1.05
2023-03-26T02:17:02.554Z,2.65
2023-03-26T02:19:30.957Z,1.27
2023-03-26T02:22:00.940Z,1.95
2023-03-26T02:24:31.864Z,1.40
2023-03-26T02:27:02.284Z,2.20
2023-03-26T02:29:31.200Z,2.35
2023-03-26T02:31:59.930Z,1.55
2023-03-26T02:34:28.244Z,1.92
2023-03-26T02:36:57.133Z,1.20
2023-03-26T02:39:26.166Z,1.65
2023-03-26T02:41:59.162Z,2.03
2023-03-26T02:44:30.150Z,3.60
2023-03-26T02:47:00.972Z,3.00
2023-03-26T02:49:49.615Z,5.10
2023-03-26T02:52:25.428Z,2.20
2023-03-26T02:54:56.849Z,1.20
2023-03-26T02:57:26.948Z,2.63
2023-03-26T03:00:16.823Z,3.10
2023-03-26T03:02:52.723Z,1.60
2023-03-26T03:05:26.238Z,2.00
2023-03-26T03:08:18.539Z,3.03
2023-03-26T03:11:11.676Z,3.97
2023-03-26T03:13:49.126Z,4.22
2023-03-26T03:16:22.766Z,2.65
2023-03-26T03:18:57.459Z,1.58
2023-03-26T03:21:31.239Z,2.85
2023-03-26T03:24:00.655Z,2.85
2023-03-26T03:26:34.155Z,2.67
2023-03-26T03:29:14.191Z,3.63
2023-03-26T03:31:44.313Z,3.17
2023-03-26T03:34:25.541Z,1.98
2023-03-26T03:36:53.857Z,3.40
2023-03-26T03:39:37.312Z,2.65
2023-03-26T03:42:05.986Z,1.92
2023-03-26T03:44:34.981Z,2.97
2023-03-26T03:47:13.547Z,2.72
2023-03-26T03:49:41.789Z,3.70
2023-03-26T03:52:10.007Z,3.58
2023-03-26T03:54:42.299Z,3.00
2023-03-26T03:57:21.930Z,2.75
2023-03-26T03:59:59.863Z,2.28
2023-03-26T04:02:35.305Z,3.78
2023-03-26T04:05:07.606Z,3.45
2023-03-26T04:07:39.844Z,3.55
2023-03-26T04:10:28.094Z,2.10
2023-03-26T04:13:16.089Z,3.42
2023-03-26T04:16:06.364Z,5.07
2023-03-26T04:18:37.649Z,2.88
2023-03-26T04:21:15.737Z,3.78
2023-03-26T04:23:45.271Z,2.65
2023-03-26T04:26:33.725Z,2.67
2023-03-26T04:29:17.190Z,3.45
2023-03-26T04:31:47.106Z,2.92
2023-03-26T04:34:24.190Z,2.53
2023-03-26T04:37:03.196Z,4.72
2023-03-26T04:39:36.193Z,2.63
2023-03-26T04:42:23.036Z,4.10
2023-03-26T04:45:07.079Z,2.20
2023-03-26T04:47:37.048Z,2.03
2023-03-26T04:50:09.347Z,3.47
2023-03-26T04:52:39.208Z,1.88
2023-03-26T04:55:23.129Z,1.45
2023-03-26T04:58:03.338Z,4.30
2023-03-26T05:00:54.179Z,1.58
2023-03-26T05:03:22.843Z,3.72
2023-03-26T05:05:52.716Z,3.88
2023-03-26T05:08:21.113Z,2.88
2023-03-26T05:10:49.301Z,5.72
2023-03-26T05:13:25.259Z,2.78
2023-03-26T05:15:56.724Z,3.13
2023-03-26T05:18:47.743Z,3.75
2023-03-26T05:21:17.448Z,2.72
2023-03-26T05:23:45.896Z,3.22
2023-03-26T05:26:20.676Z,2.80
2023-03-26T05:28:49.432Z,2.13
2023-03-26T05:31:44.254Z,1.80
2023-03-26T05:34:13.193Z,3.25
2023-03-26T05:36:43.967Z,2.75
2023-03-26T05:39:46.082Z,3.60
2023-03-26T05:42:41.845Z,4.93
2023-03-26T05:45:31.361Z,2.75
2023-03-26T05:48:02.813Z,2.28
2023-03-26T05:50:31.114Z,2.50
2023-03-26T05:53:02.959Z,2.25
2023-03-26T05:55:57.988Z,4.40
2023-03-26T05:58:44.773Z,4.03
2023-03-26T06:01:25.723Z,5.30
2023-03-26T06:04:16.033Z,4.60
2023-03-26T06:06:55.160Z,2.15
2023-03-26T06:09:24.857Z,2.08
2023-03-26T06:11:53.143Z,3.47
2023-03-26T06:14:25.315Z,3.53
2023-03-26T06:17:18.140Z,2.50
2023-03-26T06:20:21.799Z,4.25
2023-03-26T06:22:52.685Z,4.22
2023-03-26T06:25:24.812Z,2.10
2023-03-26T06:28:00.604Z,5.00
2023-03-26T06:30:51.598Z,4.70
2023-03-26T06:33:42.359Z,3.08
2023-03-26T06:36:13.024Z,5.40
2023-03-26T06:38:41.850Z,2.60
2023-03-26T06:41:12.347Z,3.15
2023-03-26T06:44:13.064Z,3.28
2023-03-26T06:47:13.530Z,3.85
2023-03-26T06:50:00.583Z,3.22
2023-03-26T06:52:31.545Z,3.08
2023-03-26T06:55:15.380Z,2.67
2023-03-26T06:58:03.668Z,4.45
2023-03-26T07:01:01.175Z,1.50
2023-03-26T07:03:49.818Z,3.80
2023-03-26T07:06:36.340Z,3.78
2023-03-26T07:09:22.918Z,1.95
2023-03-26T07:12:22.873Z,4.93
2023-03-26T07:15:21.640Z,2.38
2023-03-26T07:18:08.269Z,2.67
2023-03-26T07:20:38.800Z,3.13
2023-03-26T07:23:07.698Z,2.88
2023-03-26T07:25:54.422Z,2.40
2023-03-26T07:29:04.545Z,2.10
2023-03-26T07:31:49.545Z,2.95
2023-03-26T07:34:42.185Z,3.30
2023-03-26T07:37:45.506Z,1.75
2023-03-26T07:40:48.292Z,3.45
2023-03-26T07:43:55.566Z,3.03
2023-03-26T07:46:53.312Z,2.92
2023-03-26T07:49:35.339Z,3.03
2023-03-26T07:52:20.784Z,2.50
2023-03-26T07:54:57.567Z,3.53
2023-03-26T07:57:55.407Z,2.35
2023-03-26T08:00:36.200Z,3.50
2023-03-26T08:03:21.365Z,3.42
2023-03-26T08:06:06.486Z,2.13
2023-03-26T08:08:54.842Z,4.15
2023-03-26T08:11:44.461Z,4.22
2023-03-26T08:14:34.458Z,4.68
2023-03-26T08:17:10.610Z,4.85
2023-03-26T08:19:50.111Z,5.38
2023-03-26T08:22:26.210Z,3.85
2023-03-26T08:25:11.734Z,3.70
2023-03-26T08:27:41.936Z,3.42
2023-03-26T08:30:15.979Z,4.30
2023-03-26T08:32:51.233Z,3.63
2023-03-26T08:35:20.956Z,4.05
2023-03-26T08:37:49.534Z,3.28
2023-03-26T08:40:26.034Z,4.55
2023-03-26T08:43:36.653Z,3.05
2023-03-26T08:46:39.002Z,2.25
2023-03-26T08:49:48.372Z,3.35
2023-03-26T08:53:05.802Z,3.30
2023-03-26T08:55:49.616Z,4.47
2023-03-26T08:58:56.095Z,5.88
2023-03-26T09:02:01.220Z,5.97
2023-03-26T09:05:01.498Z,3.85
2023-03-26T09:07:58.285Z,2.33
2023-03-26T09:10:59.144Z,2.92
2023-03-26T09:14:08.081Z,3.90
2023-03-26T09:17:26.123Z,7.20
2023-03-26T09:20:19.272Z,3.75
2023-03-26T09:23:16.934Z,4.18
2023-03-26T09:26:12.271Z,3.55
2023-03-26T09:29:16.806Z,5.40
2023-03-26T09:32:27.732Z,3.90
2023-03-26T09:35:13.512Z,3.72
2023-03-26T09:38:12.065Z,2.53
2023-03-26T09:40:53.403Z,3.50
2023-03-26T09:44:08.194Z,4.47
2023-03-26T09:46:48.403Z,5.68
2023-03-26T09:49:27.165Z,9.13
2023-03-26T09:52:25.047Z,11.95
2023-03-26T09:55:48.601Z,8.13
2023-03-26T09:58:34.600Z,6.78
2023-03-26T10:01:12.540Z,5.68
2023-03-26T10:03:50.380Z,6.13
2023-03-26T10:06:37.649Z,8.48
2023-03-26T10:09:44.094Z,2.78
2023-03-26T10:12:32.851Z,6.15
2023-03-26T10:15:25.041Z,3.92
2023-03-26T10:18:27.624Z,4.68
2023-03-26T10:21:01.720Z,5.30
2023-03-26T10:24:06.881Z,4.40
2023-03-26T10:27:09.349Z,3.60
2023-03-26T10:29:55.347Z,6.05
2023-03-26T10:32:31.530Z,4.55
2023-03-26T10:35:17.715Z,4.60
2023-03-26T10:37:58.256Z,3.08
2023-03-26T10:40:32.253Z,5.63
2023-03-26T10:43:24.168Z,3.75
2023-03-26T10:46:26.241Z,5.75
2023-03-26T10:49:26.494Z,6.30
2023-03-26T10:51:58.219Z,4.82
2023-03-26T10:54:47.692Z,6.07
2023-03-26T10:57:29.831Z,25.88
2023-03-26T11:00:02.064Z,5.55
2023-03-26T11:02:32.158Z,6.15
2023-03-26T11:05:21.269Z,11.88
2023-03-26T11:07:56.407Z,4.72
2023-03-26T11:10:40.924Z,28.63
2023-03-26T11:13:19.984Z,5.72
2023-03-26T11:15:52.626Z,5.78
2023-03-26T11:18:24.331Z,4.35
2023-03-26T11:21:19.717Z,4.95
2023-03-26T11:24:04.919Z,3.28
2023-03-26T11:26:50.062Z,6.30
2023-03-26T11:29:32.788Z,15.52
2023-03-26T11:32:06.767Z,5.70
2023-03-26T11:34:39.911Z,6.15
2023-03-26T11:37:16.003Z,6.97
2023-03-26T11:39:53.834Z,3.75
2023-03-26T11:42:26.158Z,6.13
2023-03-26T11:44:57.676Z,10.82
2023-03-26T11:47:33.513Z,7.88
2023-03-26T11:50:04.603Z,4.45
2023-03-26T11:52:33.148Z,4.40
2023-03-26T11:55:01.338Z,3.50
2023-03-26T11:57:34.950Z,3.45
2023-03-26T12:00:11.756Z,8.50
2023-03-26T12:02:43.808Z,7.65
2023-03-26T12:05:19.440Z,4.05
2023-03-26T12:07:53.404Z,5.63
2023-03-26T12:10:34.867Z,4.70
2023-03-26T12:13:23.270Z,4.65
2023-03-26T12:15:51.507Z,3.00
2023-03-26T12:18:26.302Z,4.95
2023-03-26T12:21:05.700Z,5.15
2023-03-26T12:23:56.384Z,4.75
2023-03-26T12:26:34.046Z,3.50
2023-03-26T12:29:14.238Z,2.97
2023-03-26T12:31:47.976Z,3.75
2023-03-26T12:34:18.385Z,4.43
2023-03-26T12:36:55.428Z,3.00
2023-03-26T12:40:08.931Z,3.25
2023-03-26T12:44:49.991Z,4.20
2023-03-26T12:45:18.177Z,4.00
2023-03-26T12:48:01.103Z,3.00
2023-03-26T12:50:45.597Z,2.75
2023-03-26T12:53:30.152Z,3.63
2023-03-26T12:56:06.614Z,2.83
2023-03-26T12:58:57.045Z,3.58
2023-03-26T13:01:35.951Z,4.45
2023-03-26T13:04:13.400Z,2.58
2023-03-26T13:06:59.896Z,1.98
2023-03-26T13:09:59.879Z,3.30
2023-03-26T13:12:35.478Z,1.30
2023-03-26T13:15:25.886Z,2.45
2023-03-26T13:18:12.254Z,3.33
2023-03-26T13:20:51.123Z,1.50
2023-03-26T13:23:31.566Z,3.00
2023-03-26T13:26:09.235Z,3.58
2023-03-26T13:28:49.513Z,2.95
2023-03-26T13:31:25.221Z,2.70
2023-03-26T13:34:05.622Z,2.55
2023-03-26T13:36:42.502Z,3.55
2023-03-26T13:39:32.556Z,4.05
2023-03-26T13:42:19.382Z,2.95
2023-03-26T13:45:04.669Z,3.72
2023-03-26T13:47:38.465Z,3.13
2023-03-26T13:50:19.874Z,2.65
2023-03-26T13:52:52.320Z,4.78
2023-03-26T13:55:29.461Z,1.75
2023-03-26T13:58:05.053Z,3.25
2023-03-26T14:00:50.328Z,2.40
2023-03-26T14:03:24.898Z,2.35
2023-03-26T14:05:58.211Z,2.83
2023-03-26T14:08:33.433Z,2.90
2023-03-26T14:11:10.195Z,2.60
2023-03-26T14:13:53.002Z,3.17
2023-03-26T14:16:27.771Z,4.70
2023-03-26T14:19:04.587Z,4.15
2023-03-26T14:22:00.011Z,2.20
2023-03-26T14:24:59.912Z,2.25
2023-03-26T14:27:39.835Z,3.08
2023-03-26T14:30:49.283Z,4.57
2023-03-26T14:33:34.209Z,3.55
2023-03-26T14:36:10.102Z,4.88
2023-03-26T14:39:10.457Z,3.17
2023-03-26T14:41:48.995Z,2.92
2023-03-26T14:44:48.210Z,4.55
2023-03-26T14:47:19.813Z,5.32
2023-03-26T14:50:27.662Z,2.80
2023-03-26T14:53:01.231Z,4.57
2023-03-26T14:55:49.839Z,2.65
2023-03-26T14:58:48.658Z,3.53
2023-03-26T15:01:25.100Z,3.03
2023-03-26T15:04:27.592Z,5.32
2023-03-26T15:07:25.789Z,3.53
2023-03-26T15:10:26.408Z,2.35
2023-03-26T15:13:41.245Z,3.50
2023-03-26T15:16:38.514Z,5.32
2023-03-26T15:19:41.558Z,3.35
2023-03-26T15:22:54.322Z,5.65
2023-03-26T15:25:58.312Z,3.05
2023-03-26T15:29:08.598Z,4.57
2023-03-26T15:32:01.184Z,4.65
2023-03-26T15:35:02.434Z,5.93
2023-03-26T15:38:09.109Z,2.67
2023-03-26T15:40:57.751Z,4.47
2023-03-26T15:43:33.473Z,4.97
2023-03-26T15:46:27.302Z,7.63
2023-03-26T15:49:09.698Z,5.00
2023-03-26T15:51:50.665Z,4.22
2023-03-26T15:54:27.569Z,2.70
2023-03-26T15:57:17.234Z,3.17
2023-03-26T16:00:10.144Z,4.07
2023-03-26T16:02:53.724Z,5.50
2023-03-26T16:05:34.737Z,4.45
2023-03-26T16:08:11.036Z,2.28
2023-03-26T16:10:44.699Z,5.15
2023-03-26T16:13:34.335Z,5.22
2023-03-26T16:16:25.986Z,2.72
2023-03-26T16:19:20.139Z,4.80
2023-03-26T16:21:57.548Z,2.58
2023-03-26T16:24:29.250Z,5.20
2023-03-26T16:27:23.372Z,1.95
2023-03-26T16:30:26.363Z,3.30
2023-03-26T16:32:58.668Z,3.35
2023-03-26T16:35:48.672Z,3.65
2023-03-26T16:38:18.529Z,3.67
2023-03-26T16:40:59.300Z,3.63
2023-03-26T16:43:46.775Z,2.22
2023-03-26T16:46:43.728Z,4.68
2023-03-26T16:49:22.666Z,4.43
2023-03-26T16:52:15.440Z,4.55
2023-03-26T16:54:51.448Z,1.60
2023-03-26T16:57:28.144Z,3.35
2023-03-26T17:00:37.940Z,2.53
2023-03-26T17:03:17.699Z,2.13
2023-03-26T17:06:02.170Z,4.45
2023-03-26T17:08:39.043Z,3.50
2023-03-26T17:11:20.282Z,2.58
2023-03-26T17:14:01.040Z,2.53
2023-03-26T17:16:35.940Z,2.72
2023-03-26T17:19:15.670Z,3.25
2023-03-26T17:21:55.604Z,4.18
2023-03-26T17:24:36.780Z,5.28
2023-03-26T17:27:34.683Z,5.47
2023-03-26T17:30:24.963Z,4.38
2023-03-26T17:32:58.504Z,3.28
2023-03-26T17:35:42.961Z,5.32
2023-03-26T17:38:51.198Z,2.63
2023-03-26T17:42:13.132Z,4.95
2023-03-26T17:44:45.698Z,4.63
2023-03-26T17:47:40.663Z,2.45
2023-03-26T17:50:15.868Z,3.13
2023-03-26T17:52:57.215Z,4.20
2023-03-26T17:55:30.945Z,6.15
2023-03-26T17:58:02.211Z,3.65
2023-03-26T18:00:34.502Z,3.50
2023-03-26T18:03:07.574Z,3.33
2023-03-26T18:05:39.738Z,4.13
2023-03-26T18:08:37.167Z,5.32
2023-03-26T18:11:50.751Z,3.83
2023-03-26T18:14:37.907Z,2.88
2023-03-26T18:17:07.477Z,2.55
2023-03-26T18:19:48.590Z,5.00
2023-03-26T18:22:21.833Z,2.58
2023-03-26T18:24:51.310Z,4.13
2023-03-26T18:27:21.685Z,1.98
2023-03-26T18:30:03.368Z,6.22
2023-03-26T18:32:33.533Z,6.63
2023-03-26T18:35:15.631Z,5.35
2023-03-26T18:37:46.108Z,4.85
2023-03-26T18:40:19.222Z,3.95
2023-03-26T18:42:51.468Z,5.53
2023-03-26T18:45:28.349Z,3.95
2023-03-26T18:47:59.229Z,7.32
2023-03-26T18:50:31.047Z,4.40
2023-03-26T18:53:01.435Z,5.32
2023-03-26T18:55:31.207Z,5.50
2023-03-26T18:57:59.655Z,9.48
2023-03-26T19:00:30.729Z,7.57
2023-03-26T19:03:05.871Z,5.43
2023-03-26T19:05:35.883Z,8.75
2023-03-26T19:08:06.332Z,11.02
2023-03-26T19:10:36.136Z,8.75
2023-03-26T19:13:05.514Z,9.52
2023-03-26T19:15:37.141Z,11.02
2023-03-26T19:18:10.520Z,10.18
2023-03-26T19:20:43.303Z,8.77
2023-03-26T19:23:15.708Z,9.70
2023-03-26T19:25:47.564Z,8.75
2023-03-26T19:28:22.816Z,9.77
2023-03-26T19:30:58.201Z,9.80
2023-03-26T19:33:36.927Z,9.10
2023-03-26T19:36:08.290Z,6.13
2023-03-26T19:38:44.615Z,8.50
2023-03-26T19:41:23.080Z,8.68
2023-03-26T19:43:52.937Z,7.72
2023-03-26T19:46:26.679Z,11.10
2023-03-26T19:48:56.810Z,9.50
2023-03-26T19:51:32.253Z,7.97
2023-03-26T19:54:03.222Z,10.25
2023-03-26T19:56:31.829Z,11.30
2023-03-26T19:59:01.136Z,14.02
2023-03-26T20:01:32.156Z,10.23
2023-03-26T20:04:04.109Z,10.45
2023-03-26T20:06:42.643Z,9.73
2023-03-26T20:09:13.285Z,7.80
2023-03-26T20:11:42.143Z,12.20
2023-03-26T20:14:16.447Z,11.52
2023-03-26T20:16:46.510Z,14.57
2023-03-26T20:19:15.587Z,10.90
2023-03-26T20:21:44.938Z,11.23
2023-03-26T20:24:15.705Z,9.82
2023-03-26T20:26:44.056Z,12.43
2023-03-26T20:29:12.933Z,14.48
2023-03-26T20:31:44.083Z,11.27
2023-03-26T20:34:18.538Z,13.98
2023-03-26T20:36:47.419Z,13.85
2023-03-26T20:39:15.977Z,11.00
2023-03-26T20:41:47.624Z,9.73
2023-03-26T20:44:18.281Z,10.52
2023-03-26T20:46:48.553Z,14.45
2023-03-26T20:49:19.233Z,11.60
2023-03-26T20:51:48.911Z,15.63
2023-03-26T20:54:19.440Z,10.93
2023-03-26T20:56:49.244Z,12.57
2023-03-26T20:59:22.351Z,8.98
2023-03-26T21:01:51.807Z,9.85
2023-03-26T21:04:22.606Z,7.85
2023-03-26T21:06:53.215Z,13.90
2023-03-26T21:09:25.325Z,11.93
2023-03-26T21:12:00.490Z,12.27
2023-03-26T21:14:33.463Z,12.82
2023-03-26T21:17:02.697Z,8.80
2023-03-26T21:19:33.210Z,11.02
2023-03-26T21:22:10.615Z,10.10
2023-03-26T21:24:52.698Z,10.45
2023-03-26T21:27:28.035Z,10.95
2023-03-26T21:29:58.502Z,7.60
2023-03-26T21:32:27.986Z,9.73
2023-03-26T21:34:59.554Z,8.55
2023-03-26T21:37:29.040Z,10.43
2023-03-26T21:39:58.006Z,8.75
2023-03-26T21:42:29.414Z,11.93
2023-03-26T21:44:58.231Z,14.45
2023-03-26T21:47:27.171Z,11.48
2023-03-26T21:49:57.704Z,13.02
2023-03-26T21:52:26.698Z,9.52
2023-03-26T21:54:55.622Z,10.07
2023-03-26T21:57:43.535Z,11.05
2023-03-26T22:00:15.621Z,10.07
2023-03-26T22:03:02.919Z,10.60
2023-03-26T22:05:41.640Z,9.88
2023-03-26T22:08:21.427Z,12.17
2023-03-26T22:10:50.157Z,9.15
2023-03-26T22:13:18.505Z,10.38
2023-03-26T22:15:46.916Z,10.45
2023-03-26T22:18:15.331Z,13.73
2023-03-26T22:20:46.610Z,7.05
2023-03-26T22:23:15.059Z,12.70
2023-03-26T22:25:43.305Z,10.68
2023-03-26T22:28:11.547Z,7.32
2023-03-26T22:30:39.816Z,11.65
2023-03-26T22:33:11.087Z,9.85
2023-03-26T22:35:40.127Z,10.55
2023-03-26T22:38:11.730Z,14.82
2023-03-26T22:40:40.283Z,11.02
2023-03-26T22:43:09.028Z,12.85
2023-03-26T22:45:37.890Z,9.60
2023-03-26T22:48:06.401Z,13.43
2023-03-26T22:50:35.150Z,8.63
2023-03-26T22:53:03.331Z,8.85
2023-03-26T22:55:33.126Z,10.20
2023-03-26T22:58:01.399Z,10.52
2023-03-26T23:00:30.954Z,6.20
2023-03-26T23:03:00.782Z,7.63
2023-03-26T23:05:29.653Z,8.50
2023-03-26T23:07:58.288Z,6.65
2023-03-26T23:10:26.535Z,9.43
2023-03-26T23:12:56.201Z,4.27
2023-03-26T23:15:26.227Z,13.30
2023-03-26T23:17:55.137Z,7.13
2023-03-26T23:20:24.190Z,7.40
2023-03-26T23:22:52.625Z,8.15
2023-03-26T23:25:21.262Z,8.30
2023-03-26T23:27:50.626Z,12.13
2023-03-26T23:30:20.544Z,9.37
2023-03-26T23:32:49.903Z,9.43
2023-03-26T23:35:21.012Z,10.23
2023-03-26T23:37:50.827Z,7.43
2023-03-26T23:40:19.317Z,8.23
2023-03-26T23:42:48.165Z,11.57
2023-03-26T23:45:16.610Z,8.63
2023-03-26T23:47:46.970Z,6.80
2023-03-26T23:50:16.523Z,7.72
2023-03-26T23:52:45.768Z,6.30
2023-03-26T23:55:14.113Z,8.23
2023-03-26T23:57:43.198Z,7.60
